sensor_id;sensor_type;location;lat;lon;timestamp;P1;durP1;ratioP1;P2;durP2;ratioP2
14470;SDS011;7321;50.802;4.336;2022-08-19T00:01:45;14.30;;;12.98;;
14470;SDS011;7321;50.802;4.336;2022-08-19T00:04:13;15.15;;;13.68;;
14470;SDS011;7321;50.802;4.336;2022-08-19T00:06:41;15.90;;;14.45;;
14470;SDS011;7321;50.802;4.336;2022-08-19T00:09:10;15.98;;;14.57;;
14470;SDS011;7321;50.802;4.336;2022-08-19T00:11:38;15.68;;;14.18;;
14470;SDS011;7321;50.802;4.336;2022-08-19T00:14:04;17.92;;;16.33;;
14470;SDS011;7321;50.802;4.336;2022-08-19T00:16:32;15.98;;;14.57;;
14470;SDS011;7321;50.802;4.336;2022-08-19T00:18:58;16.38;;;14.88;;
14470;SDS011;7321;50.802;4.336;2022-08-19T00:21:24;16.77;;;15.20;;
14470;SDS011;7321;50.802;4.336;2022-08-19T00:23:52;18.50;;;16.80;;
14470;SDS011;7321;50.802;4.336;2022-08-19T00:26:18;17.35;;;15.55;;
14470;SDS011;7321;50.802;4.336;2022-08-19T00:28:45;19.23;;;17.45;;
14470;SDS011;7321;50.802;4.336;2022-08-19T00:31:11;21.27;;;19.17;;
14470;SDS011;7321;50.802;4.336;2022-08-19T00:33:37;29.63;;;26.60;;
14470;SDS011;7321;50.802;4.336;2022-08-19T00:36:04;30.15;;;26.77;;
14470;SDS011;7321;50.802;4.336;2022-08-19T00:38:32;29.17;;;26.20;;
14470;SDS011;7321;50.802;4.336;2022-08-19T00:40:59;29.35;;;26.23;;
14470;SDS011;7321;50.802;4.336;2022-08-19T00:43:25;31.92;;;28.55;;
14470;SDS011;7321;50.802;4.336;2022-08-19T00:45:52;29.73;;;26.67;;
14470;SDS011;7321;50.802;4.336;2022-08-19T00:48:19;28.05;;;25.05;;
14470;SDS011;7321;50.802;4.336;2022-08-19T00:50:45;28.33;;;25.40;;
14470;SDS011;7321;50.802;4.336;2022-08-19T00:53:14;27.45;;;24.23;;
14470;SDS011;7321;50.802;4.336;2022-08-19T00:55:47;26.23;;;23.55;;
14470;SDS011;7321;50.802;4.336;2022-08-19T00:58:16;25.30;;;22.70;;
14470;SDS011;7321;50.802;4.336;2022-08-19T01:00:44;25.98;;;23.27;;
14470;SDS011;7321;50.802;4.336;2022-08-19T01:03:12;26.55;;;23.90;;
14470;SDS011;7321;50.802;4.336;2022-08-19T01:05:42;28.02;;;25.13;;
14470;SDS011;7321;50.802;4.336;2022-08-19T01:08:09;28.05;;;25.15;;
14470;SDS011;7321;50.802;4.336;2022-08-19T01:10:37;28.25;;;25.35;;
14470;SDS011;7321;50.802;4.336;2022-08-19T01:13:07;29.55;;;26.00;;
14470;SDS011;7321;50.802;4.336;2022-08-19T01:15:34;32.30;;;26.70;;
14470;SDS011;7321;50.802;4.336;2022-08-19T01:18:06;31.50;;;28.17;;
14470;SDS011;7321;50.802;4.336;2022-08-19T01:20:34;30.63;;;27.45;;
14470;SDS011;7321;50.802;4.336;2022-08-19T01:23:00;31.95;;;28.52;;
14470;SDS011;7321;50.802;4.336;2022-08-19T01:25:31;34.33;;;28.42;;
14470;SDS011;7321;50.802;4.336;2022-08-19T01:28:04;32.97;;;29.48;;
14470;SDS011;7321;50.802;4.336;2022-08-19T01:30:31;31.83;;;28.35;;
14470;SDS011;7321;50.802;4.336;2022-08-19T01:32:59;31.45;;;28.08;;
14470;SDS011;7321;50.802;4.336;2022-08-19T01:35:26;32.15;;;28.73;;
14470;SDS011;7321;50.802;4.336;2022-08-19T01:37:59;30.60;;;27.30;;
14470;SDS011;7321;50.802;4.336;2022-08-19T01:40:29;32.63;;;29.20;;
14470;SDS011;7321;50.802;4.336;2022-08-19T01:42:56;31.55;;;28.25;;
14470;SDS011;7321;50.802;4.336;2022-08-19T01:45:23;34.13;;;29.80;;
14470;SDS011;7321;50.802;4.336;2022-08-19T01:47:52;32.25;;;28.92;;
14470;SDS011;7321;50.802;4.336;2022-08-19T01:50:18;32.35;;;28.70;;
14470;SDS011;7321;50.802;4.336;2022-08-19T01:52:43;31.52;;;28.25;;
14470;SDS011;7321;50.802;4.336;2022-08-19T01:55:11;33.75;;;28.55;;
14470;SDS011;7321;50.802;4.336;2022-08-19T01:57:41;31.65;;;28.25;;
14470;SDS011;7321;50.802;4.336;2022-08-19T02:00:13;32.70;;;29.15;;
14470;SDS011;7321;50.802;4.336;2022-08-19T02:02:41;33.08;;;29.25;;
14470;SDS011;7321;50.802;4.336;2022-08-19T02:05:07;34.28;;;30.55;;
14470;SDS011;7321;50.802;4.336;2022-08-19T02:07:34;34.05;;;30.40;;
14470;SDS011;7321;50.802;4.336;2022-08-19T02:10:05;36.35;;;31.33;;
14470;SDS011;7321;50.802;4.336;2022-08-19T02:12:37;33.45;;;29.95;;
14470;SDS011;7321;50.802;4.336;2022-08-19T02:15:03;33.03;;;29.45;;
14470;SDS011;7321;50.802;4.336;2022-08-19T02:17:29;33.70;;;30.00;;
14470;SDS011;7321;50.802;4.336;2022-08-19T02:19:56;34.58;;;29.73;;
14470;SDS011;7321;50.802;4.336;2022-08-19T02:22:23;32.40;;;28.58;;
14470;SDS011;7321;50.802;4.336;2022-08-19T02:24:51;32.63;;;29.08;;
14470;SDS011;7321;50.802;4.336;2022-08-19T02:27:17;32.50;;;28.90;;
14470;SDS011;7321;50.802;4.336;2022-08-19T02:29:43;31.83;;;28.40;;
14470;SDS011;7321;50.802;4.336;2022-08-19T02:32:11;30.55;;;26.75;;
14470;SDS011;7321;50.802;4.336;2022-08-19T02:34:37;32.75;;;27.65;;
14470;SDS011;7321;50.802;4.336;2022-08-19T02:37:02;30.88;;;27.35;;
14470;SDS011;7321;50.802;4.336;2022-08-19T02:39:28;32.67;;;28.33;;
14470;SDS011;7321;50.802;4.336;2022-08-19T02:41:54;32.90;;;28.10;;
14470;SDS011;7321;50.802;4.336;2022-08-19T02:44:19;30.92;;;27.58;;
14470;SDS011;7321;50.802;4.336;2022-08-19T02:46:46;32.60;;;26.27;;
14470;SDS011;7321;50.802;4.336;2022-08-19T02:49:12;32.17;;;27.65;;
14470;SDS011;7321;50.802;4.336;2022-08-19T02:51:42;30.45;;;27.30;;
14470;SDS011;7321;50.802;4.336;2022-08-19T02:54:09;31.42;;;27.67;;
14470;SDS011;7321;50.802;4.336;2022-08-19T02:56:37;31.58;;;26.73;;
14470;SDS011;7321;50.802;4.336;2022-08-19T02:59:04;30.60;;;26.17;;
14470;SDS011;7321;50.802;4.336;2022-08-19T03:01:35;30.35;;;26.00;;
14470;SDS011;7321;50.802;4.336;2022-08-19T03:04:01;28.63;;;24.08;;
14470;SDS011;7321;50.802;4.336;2022-08-19T03:06:29;27.83;;;24.85;;
14470;SDS011;7321;50.802;4.336;2022-08-19T03:08:55;30.60;;;25.60;;
14470;SDS011;7321;50.802;4.336;2022-08-19T03:11:23;29.70;;;24.73;;
14470;SDS011;7321;50.802;4.336;2022-08-19T03:13:51;29.95;;;25.48;;
14470;SDS011;7321;50.802;4.336;2022-08-19T03:16:19;31.95;;;25.77;;
14470;SDS011;7321;50.802;4.336;2022-08-19T03:18:49;29.70;;;25.27;;
14470;SDS011;7321;50.802;4.336;2022-08-19T03:21:17;30.30;;;24.42;;
14470;SDS011;7321;50.802;4.336;2022-08-19T03:23:44;29.25;;;24.35;;
14470;SDS011;7321;50.802;4.336;2022-08-19T03:26:11;27.88;;;24.00;;
14470;SDS011;7321;50.802;4.336;2022-08-19T03:28:37;31.65;;;24.40;;
14470;SDS011;7321;50.802;4.336;2022-08-19T03:31:05;26.80;;;22.92;;
14470;SDS011;7321;50.802;4.336;2022-08-19T03:33:35;26.48;;;23.05;;
14470;SDS011;7321;50.802;4.336;2022-08-19T03:36:12;32.25;;;23.50;;
14470;SDS011;7321;50.802;4.336;2022-08-19T03:38:43;29.70;;;23.95;;
14470;SDS011;7321;50.802;4.336;2022-08-19T03:41:13;27.40;;;22.80;;
14470;SDS011;7321;50.802;4.336;2022-08-19T03:43:44;29.08;;;23.48;;
14470;SDS011;7321;50.802;4.336;2022-08-19T03:46:19;26.77;;;23.20;;
14470;SDS011;7321;50.802;4.336;2022-08-19T03:48:50;30.52;;;23.33;;
14470;SDS011;7321;50.802;4.336;2022-08-19T03:51:21;29.63;;;23.05;;
14470;SDS011;7321;50.802;4.336;2022-08-19T03:53:53;28.23;;;22.85;;
14470;SDS011;7321;50.802;4.336;2022-08-19T03:56:20;27.48;;;23.48;;
14470;SDS011;7321;50.802;4.336;2022-08-19T03:58:46;28.90;;;23.70;;
14470;SDS011;7321;50.802;4.336;2022-08-19T04:01:14;30.77;;;23.90;;
14470;SDS011;7321;50.802;4.336;2022-08-19T04:03:42;32.20;;;24.60;;
14470;SDS011;7321;50.802;4.336;2022-08-19T04:06:12;29.50;;;23.20;;
14470;SDS011;7321;50.802;4.336;2022-08-19T04:08:40;30.45;;;24.23;;
14470;SDS011;7321;50.802;4.336;2022-08-19T04:11:11;31.30;;;24.20;;
14470;SDS011;7321;50.802;4.336;2022-08-19T04:13:39;30.60;;;22.58;;
14470;SDS011;7321;50.802;4.336;2022-08-19T04:16:05;28.63;;;21.70;;
14470;SDS011;7321;50.802;4.336;2022-08-19T04:18:35;30.60;;;22.98;;
14470;SDS011;7321;50.802;4.336;2022-08-19T04:21:02;27.38;;;22.30;;
14470;SDS011;7321;50.802;4.336;2022-08-19T04:23:29;24.88;;;20.80;;
14470;SDS011;7321;50.802;4.336;2022-08-19T04:25:55;26.33;;;23.17;;
14470;SDS011;7321;50.802;4.336;2022-08-19T04:28:21;28.13;;;21.95;;
14470;SDS011;7321;50.802;4.336;2022-08-19T04:30:48;27.52;;;20.77;;
14470;SDS011;7321;50.802;4.336;2022-08-19T04:33:19;26.70;;;20.83;;
14470;SDS011;7321;50.802;4.336;2022-08-19T04:35:48;29.73;;;22.10;;
14470;SDS011;7321;50.802;4.336;2022-08-19T04:38:18;27.48;;;20.88;;
14470;SDS011;7321;50.802;4.336;2022-08-19T04:40:47;30.08;;;20.13;;
14470;SDS011;7321;50.802;4.336;2022-08-19T04:43:34;27.67;;;19.52;;
14470;SDS011;7321;50.802;4.336;2022-08-19T04:46:10;29.85;;;20.17;;
14470;SDS011;7321;50.802;4.336;2022-08-19T04:48:37;30.75;;;20.73;;
14470;SDS011;7321;50.802;4.336;2022-08-19T04:51:09;27.83;;;19.88;;
14470;SDS011;7321;50.802;4.336;2022-08-19T04:53:37;32.35;;;20.70;;
14470;SDS011;7321;50.802;4.336;2022-08-19T04:56:05;28.80;;;20.10;;
14470;SDS011;7321;50.802;4.336;2022-08-19T04:58:33;27.30;;;21.17;;
14470;SDS011;7321;50.802;4.336;2022-08-19T05:00:59;25.70;;;19.52;;
14470;SDS011;7321;50.802;4.336;2022-08-19T05:03:25;28.02;;;20.65;;
14470;SDS011;7321;50.802;4.336;2022-08-19T05:05:51;29.02;;;22.02;;
14470;SDS011;7321;50.802;4.336;2022-08-19T05:08:19;29.02;;;22.40;;
14470;SDS011;7321;50.802;4.336;2022-08-19T05:10:50;29.75;;;22.40;;
14470;SDS011;7321;50.802;4.336;2022-08-19T05:13:17;31.17;;;23.45;;
14470;SDS011;7321;50.802;4.336;2022-08-19T05:15:44;30.58;;;22.55;;
14470;SDS011;7321;50.802;4.336;2022-08-19T05:18:19;32.95;;;23.25;;
14470;SDS011;7321;50.802;4.336;2022-08-19T05:21:10;34.70;;;24.20;;
14470;SDS011;7321;50.802;4.336;2022-08-19T05:23:57;29.35;;;22.77;;
14470;SDS011;7321;50.802;4.336;2022-08-19T05:26:23;26.83;;;22.65;;
14470;SDS011;7321;50.802;4.336;2022-08-19T05:28:51;28.73;;;22.70;;
14470;SDS011;7321;50.802;4.336;2022-08-19T05:31:18;29.80;;;22.48;;
14470;SDS011;7321;50.802;4.336;2022-08-19T05:33:44;28.98;;;22.02;;
14470;SDS011;7321;50.802;4.336;2022-08-19T05:36:10;30.48;;;21.75;;
14470;SDS011;7321;50.802;4.336;2022-08-19T05:38:36;27.58;;;20.98;;
14470;SDS011;7321;50.802;4.336;2022-08-19T05:41:08;25.20;;;19.73;;
14470;SDS011;7321;50.802;4.336;2022-08-19T05:43:35;25.38;;;19.77;;
14470;SDS011;7321;50.802;4.336;2022-08-19T05:46:02;26.98;;;18.85;;
14470;SDS011;7321;50.802;4.336;2022-08-19T05:48:34;24.25;;;17.75;;
14470;SDS011;7321;50.802;4.336;2022-08-19T05:51:06;20.20;;;17.05;;
14470;SDS011;7321;50.802;4.336;2022-08-19T05:53:34;21.30;;;15.50;;
14470;SDS011;7321;50.802;4.336;2022-08-19T05:56:10;19.38;;;16.15;;
14470;SDS011;7321;50.802;4.336;2022-08-19T05:58:38;18.40;;;13.85;;
14470;SDS011;7321;50.802;4.336;2022-08-19T06:01:08;23.17;;;15.20;;
14470;SDS011;7321;50.802;4.336;2022-08-19T06:03:36;18.70;;;13.98;;
14470;SDS011;7321;50.802;4.336;2022-08-19T06:06:05;15.23;;;12.60;;
14470;SDS011;7321;50.802;4.336;2022-08-19T06:08:33;16.38;;;12.75;;
14470;SDS011;7321;50.802;4.336;2022-08-19T06:11:14;16.58;;;12.32;;
14470;SDS011;7321;50.802;4.336;2022-08-19T06:13:42;16.75;;;12.00;;
14470;SDS011;7321;50.802;4.336;2022-08-19T06:16:10;13.25;;;11.60;;
14470;SDS011;7321;50.802;4.336;2022-08-19T06:18:35;13.13;;;10.82;;
14470;SDS011;7321;50.802;4.336;2022-08-19T06:21:02;13.07;;;11.05;;
14470;SDS011;7321;50.802;4.336;2022-08-19T06:23:30;15.32;;;10.60;;
14470;SDS011;7321;50.802;4.336;2022-08-19T06:25:56;14.35;;;9.75;;
14470;SDS011;7321;50.802;4.336;2022-08-19T06:28:21;15.82;;;10.75;;
14470;SDS011;7321;50.802;4.336;2022-08-19T06:30:48;16.90;;;10.45;;
14470;SDS011;7321;50.802;4.336;2022-08-19T06:33:15;12.32;;;9.70;;
14470;SDS011;7321;50.802;4.336;2022-08-19T06:35:41;11.82;;;9.77;;
14470;SDS011;7321;50.802;4.336;2022-08-19T06:38:07;15.90;;;10.35;;
14470;SDS011;7321;50.802;4.336;2022-08-19T06:40:34;18.58;;;10.27;;
14470;SDS011;7321;50.802;4.336;2022-08-19T06:43:00;11.57;;;9.20;;
14470;SDS011;7321;50.802;4.336;2022-08-19T06:45:27;12.55;;;9.05;;
14470;SDS011;7321;50.802;4.336;2022-08-19T06:47:53;12.52;;;9.27;;
14470;SDS011;7321;50.802;4.336;2022-08-19T06:50:21;19.98;;;10.65;;
14470;SDS011;7321;50.802;4.336;2022-08-19T06:52:49;14.95;;;10.48;;
14470;SDS011;7321;50.802;4.336;2022-08-19T06:55:16;16.05;;;9.98;;
14470;SDS011;7321;50.802;4.336;2022-08-19T06:57:42;14.27;;;10.10;;
14470;SDS011;7321;50.802;4.336;2022-08-19T07:00:11;13.68;;;10.20;;
14470;SDS011;7321;50.802;4.336;2022-08-19T07:02:40;18.52;;;10.73;;
14470;SDS011;7321;50.802;4.336;2022-08-19T07:05:07;18.17;;;9.90;;
14470;SDS011;7321;50.802;4.336;2022-08-19T07:07:33;16.83;;;9.40;;
14470;SDS011;7321;50.802;4.336;2022-08-19T07:10:03;13.95;;;9.27;;
14470;SDS011;7321;50.802;4.336;2022-08-19T07:12:32;14.35;;;9.95;;
14470;SDS011;7321;50.802;4.336;2022-08-19T07:14:58;18.70;;;11.27;;
14470;SDS011;7321;50.802;4.336;2022-08-19T07:17:24;14.38;;;10.95;;
14470;SDS011;7321;50.802;4.336;2022-08-19T07:19:50;17.67;;;10.43;;
14470;SDS011;7321;50.802;4.336;2022-08-19T07:22:16;16.17;;;10.32;;
14470;SDS011;7321;50.802;4.336;2022-08-19T07:24:43;14.88;;;9.85;;
14470;SDS011;7321;50.802;4.336;2022-08-19T07:27:08;13.32;;;9.30;;
14470;SDS011;7321;50.802;4.336;2022-08-19T07:29:35;15.82;;;10.32;;
14470;SDS011;7321;50.802;4.336;2022-08-19T07:32:02;13.75;;;9.45;;
14470;SDS011;7321;50.802;4.336;2022-08-19T07:34:29;13.10;;;9.50;;
14470;SDS011;7321;50.802;4.336;2022-08-19T07:36:56;13.93;;;9.57;;
14470;SDS011;7321;50.802;4.336;2022-08-19T07:39:23;14.30;;;8.98;;
14470;SDS011;7321;50.802;4.336;2022-08-19T07:41:54;10.48;;;8.88;;
14470;SDS011;7321;50.802;4.336;2022-08-19T07:44:21;11.68;;;9.10;;
14470;SDS011;7321;50.802;4.336;2022-08-19T07:46:49;10.35;;;9.10;;
14470;SDS011;7321;50.802;4.336;2022-08-19T07:49:17;10.38;;;9.38;;
14470;SDS011;7321;50.802;4.336;2022-08-19T07:51:49;10.75;;;9.52;;
14470;SDS011;7321;50.802;4.336;2022-08-19T07:54:35;11.63;;;8.77;;
14470;SDS011;7321;50.802;4.336;2022-08-19T07:57:03;10.15;;;8.50;;
14470;SDS011;7321;50.802;4.336;2022-08-19T07:59:29;10.98;;;8.82;;
14470;SDS011;7321;50.802;4.336;2022-08-19T08:01:56;10.27;;;8.20;;
14470;SDS011;7321;50.802;4.336;2022-08-19T08:04:24;9.77;;;7.93;;
14470;SDS011;7321;50.802;4.336;2022-08-19T08:07:09;11.25;;;7.97;;
14470;SDS011;7321;50.802;4.336;2022-08-19T08:09:54;10.20;;;7.40;;
14470;SDS011;7321;50.802;4.336;2022-08-19T08:12:22;11.25;;;7.50;;
14470;SDS011;7321;50.802;4.336;2022-08-19T08:14:53;9.27;;;7.32;;
14470;SDS011;7321;50.802;4.336;2022-08-19T08:17:22;7.82;;;7.00;;
14470;SDS011;7321;50.802;4.336;2022-08-19T08:19:50;7.20;;;6.50;;
14470;SDS011;7321;50.802;4.336;2022-08-19T08:22:17;10.57;;;7.50;;
14470;SDS011;7321;50.802;4.336;2022-08-19T08:25:05;12.40;;;7.13;;
14470;SDS011;7321;50.802;4.336;2022-08-19T08:27:35;10.10;;;7.38;;
14470;SDS011;7321;50.802;4.336;2022-08-19T08:30:14;6.82;;;6.13;;
14470;SDS011;7321;50.802;4.336;2022-08-19T08:32:45;9.55;;;6.80;;
14470;SDS011;7321;50.802;4.336;2022-08-19T08:35:13;8.68;;;6.50;;
14470;SDS011;7321;50.802;4.336;2022-08-19T08:37:41;9.48;;;8.52;;
14470;SDS011;7321;50.802;4.336;2022-08-19T08:43:27;11.82;;;10.00;;
14470;SDS011;7321;50.802;4.336;2022-08-19T08:46:08;11.43;;;7.72;;
14470;SDS011;7321;50.802;4.336;2022-08-19T08:48:41;8.45;;;6.88;;
14470;SDS011;7321;50.802;4.336;2022-08-19T08:51:15;9.38;;;5.80;;
14470;SDS011;7321;50.802;4.336;2022-08-19T08:53:49;10.45;;;6.07;;
14470;SDS011;7321;50.802;4.336;2022-08-19T08:56:17;9.82;;;6.22;;
14470;SDS011;7321;50.802;4.336;2022-08-19T09:01:35;7.70;;;5.90;;
14470;SDS011;7321;50.802;4.336;2022-08-19T09:04:04;9.73;;;6.30;;
14470;SDS011;7321;50.802;4.336;2022-08-19T09:09:10;7.68;;;5.53;;
14470;SDS011;7321;50.802;4.336;2022-08-19T09:14:23;6.70;;;5.07;;
14470;SDS011;7321;50.802;4.336;2022-08-19T09:17:03;7.25;;;4.78;;
14470;SDS011;7321;50.802;4.336;2022-08-19T09:19:33;7.05;;;5.82;;
14470;SDS011;7321;50.802;4.336;2022-08-19T09:22:00;8.43;;;5.88;;
14470;SDS011;7321;50.802;4.336;2022-08-19T09:24:26;6.50;;;4.95;;
14470;SDS011;7321;50.802;4.336;2022-08-19T09:26:52;7.60;;;5.38;;
14470;SDS011;7321;50.802;4.336;2022-08-19T09:29:18;9.52;;;5.88;;
14470;SDS011;7321;50.802;4.336;2022-08-19T09:31:45;7.88;;;6.00;;
14470;SDS011;7321;50.802;4.336;2022-08-19T09:34:10;7.57;;;5.55;;
14470;SDS011;7321;50.802;4.336;2022-08-19T09:36:36;10.90;;;5.90;;
14470;SDS011;7321;50.802;4.336;2022-08-19T09:39:04;6.32;;;5.53;;
14470;SDS011;7321;50.802;4.336;2022-08-19T09:41:31;6.63;;;5.53;;
14470;SDS011;7321;50.802;4.336;2022-08-19T09:43:57;8.07;;;5.50;;
14470;SDS011;7321;50.802;4.336;2022-08-19T09:46:25;5.88;;;4.93;;
14470;SDS011;7321;50.802;4.336;2022-08-19T09:48:52;7.72;;;5.50;;
14470;SDS011;7321;50.802;4.336;2022-08-19T09:51:21;6.45;;;5.03;;
14470;SDS011;7321;50.802;4.336;2022-08-19T09:53:49;7.13;;;4.70;;
14470;SDS011;7321;50.802;4.336;2022-08-19T09:56:16;6.32;;;5.30;;
14470;SDS011;7321;50.802;4.336;2022-08-19T09:58:43;8.25;;;5.40;;
14470;SDS011;7321;50.802;4.336;2022-08-19T10:01:14;5.97;;;5.30;;
14470;SDS011;7321;50.802;4.336;2022-08-19T10:03:46;6.63;;;5.35;;
14470;SDS011;7321;50.802;4.336;2022-08-19T10:06:14;6.07;;;5.57;;
14470;SDS011;7321;50.802;4.336;2022-08-19T10:08:41;6.82;;;6.13;;
14470;SDS011;7321;50.802;4.336;2022-08-19T10:11:06;6.38;;;5.78;;
14470;SDS011;7321;50.802;4.336;2022-08-19T10:13:34;7.47;;;5.50;;
14470;SDS011;7321;50.802;4.336;2022-08-19T10:16:08;8.55;;;6.57;;
14470;SDS011;7321;50.802;4.336;2022-08-19T10:18:37;6.90;;;6.20;;
14470;SDS011;7321;50.802;4.336;2022-08-19T10:21:04;9.13;;;6.97;;
14470;SDS011;7321;50.802;4.336;2022-08-19T10:23:36;7.70;;;6.90;;
14470;SDS011;7321;50.802;4.336;2022-08-19T10:26:03;8.23;;;6.90;;
14470;SDS011;7321;50.802;4.336;2022-08-19T10:28:31;10.77;;;8.00;;
14470;SDS011;7321;50.802;4.336;2022-08-19T10:31:10;7.68;;;6.50;;
14470;SDS011;7321;50.802;4.336;2022-08-19T10:33:38;11.13;;;7.10;;
14470;SDS011;7321;50.802;4.336;2022-08-19T10:36:11;7.85;;;7.03;;
14470;SDS011;7321;50.802;4.336;2022-08-19T10:38:45;7.40;;;6.70;;
14470;SDS011;7321;50.802;4.336;2022-08-19T10:41:14;9.90;;;7.07;;
14470;SDS011;7321;50.802;4.336;2022-08-19T10:43:47;8.50;;;7.60;;
14470;SDS011;7321;50.802;4.336;2022-08-19T10:46:17;10.05;;;7.95;;
14470;SDS011;7321;50.802;4.336;2022-08-19T10:48:43;11.40;;;8.00;;
14470;SDS011;7321;50.802;4.336;2022-08-19T10:51:10;10.68;;;8.00;;
14470;SDS011;7321;50.802;4.336;2022-08-19T10:53:55;9.90;;;7.75;;
14470;SDS011;7321;50.802;4.336;2022-08-19T10:56:22;8.57;;;6.97;;
14470;SDS011;7321;50.802;4.336;2022-08-19T10:59:06;13.02;;;11.55;;
14470;SDS011;7321;50.802;4.336;2022-08-19T11:01:33;8.90;;;7.43;;
14470;SDS011;7321;50.802;4.336;2022-08-19T11:04:00;9.57;;;8.52;;
14470;SDS011;7321;50.802;4.336;2022-08-19T11:06:27;12.13;;;9.43;;
14470;SDS011;7321;50.802;4.336;2022-08-19T11:08:54;10.52;;;8.52;;
14470;SDS011;7321;50.802;4.336;2022-08-19T11:11:20;12.68;;;11.00;;
14470;SDS011;7321;50.802;4.336;2022-08-19T11:13:47;11.38;;;8.60;;
14470;SDS011;7321;50.802;4.336;2022-08-19T11:16:22;10.98;;;9.68;;
14470;SDS011;7321;50.802;4.336;2022-08-19T11:18:52;10.85;;;9.10;;
14470;SDS011;7321;50.802;4.336;2022-08-19T11:21:20;11.60;;;9.30;;
14470;SDS011;7321;50.802;4.336;2022-08-19T11:23:49;10.15;;;8.40;;
14470;SDS011;7321;50.802;4.336;2022-08-19T11:26:16;10.43;;;8.15;;
14470;SDS011;7321;50.802;4.336;2022-08-19T11:28:43;10.88;;;8.38;;
14470;SDS011;7321;50.802;4.336;2022-08-19T11:31:17;8.93;;;7.97;;
14470;SDS011;7321;50.802;4.336;2022-08-19T11:33:45;9.25;;;8.35;;
14470;SDS011;7321;50.802;4.336;2022-08-19T11:36:11;10.00;;;8.30;;
14470;SDS011;7321;50.802;4.336;2022-08-19T11:38:38;12.00;;;7.88;;
14470;SDS011;7321;50.802;4.336;2022-08-19T11:41:05;14.63;;;11.38;;
14470;SDS011;7321;50.802;4.336;2022-08-19T11:43:35;10.38;;;8.05;;
14470;SDS011;7321;50.802;4.336;2022-08-19T11:46:08;8.13;;;7.32;;
14470;SDS011;7321;50.802;4.336;2022-08-19T11:48:37;8.27;;;7.45;;
14470;SDS011;7321;50.802;4.336;2022-08-19T11:51:04;8.77;;;7.43;;
14470;SDS011;7321;50.802;4.336;2022-08-19T11:53:32;8.15;;;7.40;;
14470;SDS011;7321;50.802;4.336;2022-08-19T11:55:59;8.35;;;6.50;;
14470;SDS011;7321;50.802;4.336;2022-08-19T11:58:25;6.57;;;5.93;;
14470;SDS011;7321;50.802;4.336;2022-08-19T12:00:51;7.70;;;6.10;;
14470;SDS011;7321;50.802;4.336;2022-08-19T12:03:17;9.00;;;6.35;;
14470;SDS011;7321;50.802;4.336;2022-08-19T12:05:44;5.95;;;5.25;;
14470;SDS011;7321;50.802;4.336;2022-08-19T12:08:15;5.57;;;5.03;;
14470;SDS011;7321;50.802;4.336;2022-08-19T12:10:41;6.35;;;5.18;;
14470;SDS011;7321;50.802;4.336;2022-08-19T12:13:09;5.95;;;5.15;;
14470;SDS011;7321;50.802;4.336;2022-08-19T12:15:39;7.65;;;5.25;;
14470;SDS011;7321;50.802;4.336;2022-08-19T12:18:08;5.68;;;4.35;;
14470;SDS011;7321;50.802;4.336;2022-08-19T12:20:38;4.63;;;4.22;;
14470;SDS011;7321;50.802;4.336;2022-08-19T12:23:06;5.72;;;4.00;;
14470;SDS011;7321;50.802;4.336;2022-08-19T12:25:33;5.03;;;3.47;;
14470;SDS011;7321;50.802;4.336;2022-08-19T12:27:59;5.93;;;3.78;;
14470;SDS011;7321;50.802;4.336;2022-08-19T12:30:25;7.85;;;3.80;;
14470;SDS011;7321;50.802;4.336;2022-08-19T12:32:51;4.18;;;2.97;;
14470;SDS011;7321;50.802;4.336;2022-08-19T12:35:18;3.50;;;3.13;;
14470;SDS011;7321;50.802;4.336;2022-08-19T12:37:45;5.68;;;3.13;;
14470;SDS011;7321;50.802;4.336;2022-08-19T12:40:13;6.03;;;3.45;;
14470;SDS011;7321;50.802;4.336;2022-08-19T12:42:40;6.50;;;2.85;;
14470;SDS011;7321;50.802;4.336;2022-08-19T12:45:09;5.10;;;3.03;;
14470;SDS011;7321;50.802;4.336;2022-08-19T12:47:36;3.60;;;3.30;;
14470;SDS011;7321;50.802;4.336;2022-08-19T12:50:02;6.90;;;3.75;;
14470;SDS011;7321;50.802;4.336;2022-08-19T12:52:34;6.70;;;3.63;;
14470;SDS011;7321;50.802;4.336;2022-08-19T12:55:03;5.10;;;3.20;;
14470;SDS011;7321;50.802;4.336;2022-08-19T12:57:31;5.80;;;2.90;;
14470;SDS011;7321;50.802;4.336;2022-08-19T13:02:30;4.10;;;2.95;;
14470;SDS011;7321;50.802;4.336;2022-08-19T13:04:57;3.08;;;2.60;;
14470;SDS011;7321;50.802;4.336;2022-08-19T13:07:23;20.95;;;3.63;;
14470;SDS011;7321;50.802;4.336;2022-08-19T13:09:51;7.47;;;2.40;;
14470;SDS011;7321;50.802;4.336;2022-08-19T13:12:17;2.78;;;2.20;;
14470;SDS011;7321;50.802;4.336;2022-08-19T13:14:45;3.22;;;2.25;;
14470;SDS011;7321;50.802;4.336;2022-08-19T13:17:15;4.75;;;2.47;;
14470;SDS011;7321;50.802;4.336;2022-08-19T13:19:41;3.17;;;2.33;;
14470;SDS011;7321;50.802;4.336;2022-08-19T13:22:06;5.40;;;3.10;;
14470;SDS011;7321;50.802;4.336;2022-08-19T13:24:32;5.45;;;2.35;;
14470;SDS011;7321;50.802;4.336;2022-08-19T13:26:59;4.68;;;2.20;;
14470;SDS011;7321;50.802;4.336;2022-08-19T13:29:25;4.13;;;2.10;;
14470;SDS011;7321;50.802;4.336;2022-08-19T13:32:10;6.22;;;2.80;;
14470;SDS011;7321;50.802;4.336;2022-08-19T13:35:05;3.65;;;2.47;;
14470;SDS011;7321;50.802;4.336;2022-08-19T13:37:31;3.15;;;2.22;;
14470;SDS011;7321;50.802;4.336;2022-08-19T13:40:19;3.75;;;2.35;;
14470;SDS011;7321;50.802;4.336;2022-08-19T13:42:51;3.25;;;2.47;;
14470;SDS011;7321;50.802;4.336;2022-08-19T13:45:19;2.92;;;2.15;;
14470;SDS011;7321;50.802;4.336;2022-08-19T13:47:47;4.05;;;2.35;;
14470;SDS011;7321;50.802;4.336;2022-08-19T13:50:16;4.72;;;2.17;;
14470;SDS011;7321;50.802;4.336;2022-08-19T13:52:45;3.20;;;2.00;;
14470;SDS011;7321;50.802;4.336;2022-08-19T13:55:12;2.65;;;1.52;;
14470;SDS011;7321;50.802;4.336;2022-08-19T13:57:39;1.77;;;1.40;;
14470;SDS011;7321;50.802;4.336;2022-08-19T14:00:07;3.92;;;1.88;;
14470;SDS011;7321;50.802;4.336;2022-08-19T14:02:36;1.65;;;1.17;;
14470;SDS011;7321;50.802;4.336;2022-08-19T14:05:03;2.28;;;1.80;;
14470;SDS011;7321;50.802;4.336;2022-08-19T14:07:33;3.72;;;1.50;;
14470;SDS011;7321;50.802;4.336;2022-08-19T14:10:00;3.03;;;2.00;;
14470;SDS011;7321;50.802;4.336;2022-08-19T14:12:25;2.90;;;2.03;;
14470;SDS011;7321;50.802;4.336;2022-08-19T14:14:51;3.30;;;2.17;;
14470;SDS011;7321;50.802;4.336;2022-08-19T14:17:17;4.07;;;2.20;;
14470;SDS011;7321;50.802;4.336;2022-08-19T14:19:43;2.10;;;2.00;;
14470;SDS011;7321;50.802;4.336;2022-08-19T14:22:08;2.70;;;2.50;;
14470;SDS011;7321;50.802;4.336;2022-08-19T14:24:36;2.15;;;2.00;;
14470;SDS011;7321;50.802;4.336;2022-08-19T14:27:04;4.35;;;1.80;;
14470;SDS011;7321;50.802;4.336;2022-08-19T14:29:31;2.72;;;1.63;;
14470;SDS011;7321;50.802;4.336;2022-08-19T14:31:58;2.42;;;1.50;;
14470;SDS011;7321;50.802;4.336;2022-08-19T14:34:24;2.47;;;1.77;;
14470;SDS011;7321;50.802;4.336;2022-08-19T14:36:51;2.05;;;1.85;;
14470;SDS011;7321;50.802;4.336;2022-08-19T14:39:17;2.72;;;2.00;;
14470;SDS011;7321;50.802;4.336;2022-08-19T14:41:43;3.42;;;2.45;;
14470;SDS011;7321;50.802;4.336;2022-08-19T14:44:10;2.38;;;2.17;;
14470;SDS011;7321;50.802;4.336;2022-08-19T14:46:37;2.15;;;1.95;;
14470;SDS011;7321;50.802;4.336;2022-08-19T14:49:04;2.72;;;2.30;;
14470;SDS011;7321;50.802;4.336;2022-08-19T14:51:30;2.63;;;2.20;;
14470;SDS011;7321;50.802;4.336;2022-08-19T14:53:56;2.13;;;1.92;;
14470;SDS011;7321;50.802;4.336;2022-08-19T14:56:23;4.28;;;1.73;;
14470;SDS011;7321;50.802;4.336;2022-08-19T14:58:50;3.78;;;1.50;;
14470;SDS011;7321;50.802;4.336;2022-08-19T15:01:16;2.80;;;1.50;;
14470;SDS011;7321;50.802;4.336;2022-08-19T15:03:45;1.95;;;1.73;;
14470;SDS011;7321;50.802;4.336;2022-08-19T15:06:11;2.17;;;1.20;;
14470;SDS011;7321;50.802;4.336;2022-08-19T15:08:37;2.05;;;1.45;;